Time;durP1;ratioP1;P1;durP2;ratioP2;P2;SDS_P1;SDS_P2;PMS_P1;PMS_P2;Temp;Humidity;BMP_temperature;BMP_pressure;BME280_temperature;BME280_humidity;BME280_pressure;Samples;Min_cycle;Max_cycle;Signal;HPM_P1;HPM_P2
2023/10/22 00:01:47;;;;;;;;;;;13.40;99.90;;;;;;5113556;28;19979;-31
2023/10/22 00:04:14;;;;;;;;;;;13.40;99.90;;;;;;5113585;28;19958;-32
2023/10/22 00:06:42;;;;;;;;;;;13.40;99.90;;;;;;5095379;28;19993;-32
2023/10/22 00:09:09;;;;;;;;;;;13.30;99.90;;;;;;5094778;28;19998;-32
2023/10/22 00:11:35;;;;;;;;;;;13.40;99.90;;;;;;5095242;28;19969;-32
2023/10/22 00:14:03;;;;;;;;;;;13.40;99.90;;;;;;5113070;28;20289;-33
2023/10/22 00:16:30;;;;;;;;;;;13.40;99.90;;;;;;5113442;28;19924;-32
2023/10/22 00:18:57;;;;;;;;;;;13.40;99.90;;;;;;5113413;28;20004;-33
2023/10/22 00:21:23;;;;;;;;;;;13.40;99.90;;;;;;5113012;28;19940;-32
2023/10/22 00:23:50;;;;;;;;;;;13.40;99.90;;;;;;5112833;28;20383;-33
2023/10/22 00:26:16;;;;;;;;;;;13.40;99.90;;;;;;5112476;28;20019;-31
2023/10/22 00:28:43;;;;;;;;;;;13.40;99.90;;;;;;5095066;28;20016;-32
2023/10/22 00:31:11;;;;;;;;;;;13.30;99.90;;;;;;5095119;28;20260;-31
2023/10/22 00:33:38;;;;;;;;;;;13.40;99.90;;;;;;5094278;28;19992;-32
2023/10/22 00:36:05;;;;;;;;;;;13.40;99.90;;;;;;5112014;28;19924;-32
2023/10/22 00:38:31;;;;;;;;;;;13.30;99.90;;;;;;5112869;28;20486;-32
2023/10/22 00:40:58;;;;;;;;;;;13.30;99.90;;;;;;5094110;28;19934;-32
2023/10/22 00:43:24;;;;;;;;;;;13.30;99.90;;;;;;5095153;28;19924;-32
2023/10/22 00:45:51;;;;;;;;;;;13.30;99.90;;;;;;5112556;28;20363;-32
2023/10/22 00:48:19;;;;;;;;;;;13.30;99.90;;;;;;5112900;28;20135;-32
2023/10/22 00:50:46;;;;;;;;;;;13.30;99.90;;;;;;5095006;28;19938;-32
2023/10/22 00:53:13;;;;;;;;;;;13.30;99.90;;;;;;5112127;28;19924;-32
2023/10/22 00:55:40;;;;;;;;;;;13.20;99.90;;;;;;5093846;28;19924;-32
2023/10/22 00:58:07;;;;;;;;;;;13.20;99.90;;;;;;5094399;28;19950;-32
2023/10/22 01:00:33;;;;;;;;;;;13.20;99.90;;;;;;5093817;28;19976;-32
2023/10/22 01:03:01;;;;;;;;;;;13.10;99.90;;;;;;5094778;28;19963;-32
2023/10/22 01:05:29;;;;;;;;;;;13.10;99.90;;;;;;5093724;28;20015;-33
2023/10/22 01:07:56;;;;;;;;;;;13.10;99.90;;;;;;5112569;28;19927;-32
2023/10/22 01:10:22;;;;;;;;;;;13.00;99.90;;;;;;5094083;28;20361;-32
2023/10/22 01:12:49;;;;;;;;;;;13.00;99.90;;;;;;5111926;28;19924;-32
2023/10/22 01:15:16;;;;;;;;;;;13.00;99.90;;;;;;5093929;28;19977;-31
2023/10/22 01:17:42;;;;;;;;;;;13.10;99.90;;;;;;5094824;28;19924;-31
2023/10/22 01:20:10;;;;;;;;;;;13.00;99.90;;;;;;5094500;28;19977;-31
2023/10/22 01:22:38;;;;;;;;;;;13.00;99.90;;;;;;5094576;28;19938;-32
2023/10/22 01:25:06;;;;;;;;;;;12.90;99.90;;;;;;5093762;28;20330;-33
2023/10/22 01:27:33;;;;;;;;;;;12.80;99.90;;;;;;5093333;28;19962;-31
2023/10/22 01:29:59;;;;;;;;;;;12.80;99.90;;;;;;5094527;28;19968;-32
2023/10/22 01:32:30;;;;;;;;;;;12.80;99.90;;;;;;5112726;28;19928;-31
2023/10/22 01:34:56;;;;;;;;;;;12.80;99.90;;;;;;5110569;28;20011;-32
2023/10/22 01:37:24;;;;;;;;;;;12.70;99.90;;;;;;5112386;28;20001;-32
2023/10/22 01:39:51;;;;;;;;;;;12.70;99.90;;;;;;5090430;28;20011;-32
2023/10/22 01:42:19;;;;;;;;;;;12.70;99.90;;;;;;5107071;28;19964;-32
2023/10/22 01:44:45;;;;;;;;;;;12.60;99.90;;;;;;5093499;28;19964;-34
2023/10/22 01:47:12;;;;;;;;;;;12.60;99.90;;;;;;5095050;28;19938;-32
2023/10/22 01:49:39;;;;;;;;;;;12.60;99.90;;;;;;5113773;28;20329;-31
2023/10/22 01:52:05;;;;;;;;;;;12.60;99.90;;;;;;5098184;28;19988;-31
2023/10/22 01:54:32;;;;;;;;;;;12.60;99.90;;;;;;5104326;28;20362;-31
2023/10/22 01:56:59;;;;;;;;;;;12.60;99.90;;;;;;5090029;28;19957;-32
2023/10/22 01:59:27;;;;;;;;;;;12.50;99.90;;;;;;5097901;28;20013;-32
2023/10/22 02:01:53;;;;;;;;;;;12.50;99.90;;;;;;5114342;28;19924;-32
2023/10/22 02:04:20;;;;;;;;;;;12.40;99.90;;;;;;5097320;28;19995;-32
2023/10/22 02:06:47;;;;;;;;;;;12.40;99.90;;;;;;5097217;28;19932;-32
2023/10/22 02:09:15;;;;;;;;;;;12.30;99.90;;;;;;5114235;28;19938;-31
2023/10/22 02:11:42;;;;;;;;;;;12.30;99.90;;;;;;5096987;28;19932;-31
2023/10/22 02:14:08;;;;;;;;;;;12.30;99.90;;;;;;5115514;28;20311;-32
2023/10/22 02:16:36;;;;;;;;;;;12.30;99.90;;;;;;5115160;28;20374;-32
2023/10/22 02:19:03;;;;;;;;;;;12.30;99.90;;;;;;5115562;28;20307;-31
2023/10/22 02:21:30;;;;;;;;;;;12.30;99.90;;;;;;5115417;28;20268;-32
2023/10/22 02:23:56;;;;;;;;;;;12.30;99.90;;;;;;5115440;28;20371;-33
2023/10/22 02:26:23;;;;;;;;;;;12.30;99.90;;;;;;5096773;28;20006;-33
2023/10/22 02:28:49;;;;;;;;;;;12.30;99.90;;;;;;5096777;28;19924;-32
2023/10/22 02:31:16;;;;;;;;;;;12.20;99.90;;;;;;5114376;28;20043;-32
2023/10/22 02:33:44;;;;;;;;;;;12.10;99.90;;;;;;5096857;28;19954;-32
2023/10/22 02:36:11;;;;;;;;;;;12.10;99.90;;;;;;5095878;28;19940;-31
2023/10/22 02:38:37;;;;;;;;;;;12.10;99.90;;;;;;5097359;28;19976;-31
2023/10/22 02:41:04;;;;;;;;;;;12.10;99.90;;;;;;5115347;28;20001;-31
2023/10/22 02:43:31;;;;;;;;;;;12.00;99.90;;;;;;5096879;28;20446;-31
2023/10/22 02:45:57;;;;;;;;;;;12.00;99.90;;;;;;5094612;28;19944;-31
2023/10/22 02:48:24;;;;;;;;;;;12.00;99.90;;;;;;5096759;28;20026;-31
2023/10/22 02:50:52;;;;;;;;;;;11.90;99.90;;;;;;5096176;28;19924;-31
2023/10/22 02:53:19;;;;;;;;;;;11.90;99.90;;;;;;5096657;28;19927;-31
2023/10/22 02:55:45;;;;;;;;;;;12.00;99.90;;;;;;5114393;28;19924;-32
2023/10/22 02:58:12;;;;;;;;;;;12.00;99.90;;;;;;5113972;28;19936;-32
2023/10/22 03:00:39;;;;;;;;;;;12.00;99.90;;;;;;5096403;28;20444;-33
2023/10/22 03:03:06;;;;;;;;;;;12.00;99.90;;;;;;5095531;28;19928;-31
2023/10/22 03:05:32;;;;;;;;;;;12.00;99.90;;;;;;5096286;28;20384;-31
2023/10/22 03:08:01;;;;;;;;;;;12.00;99.90;;;;;;5114111;28;20016;-31
2023/10/22 03:10:27;;;;;;;;;;;12.00;99.90;;;;;;5096556;28;20455;-32
2023/10/22 03:12:54;;;;;;;;;;;12.00;99.90;;;;;;5114692;28;19962;-33
2023/10/22 03:15:21;;;;;;;;;;;12.00;99.90;;;;;;5114598;28;20007;-33
2023/10/22 03:17:47;;;;;;;;;;;12.00;99.90;;;;;;5114558;28;19928;-32
2023/10/22 03:20:16;;;;;;;;;;;12.00;99.90;;;;;;5095231;28;19923;-33
2023/10/22 03:22:43;;;;;;;;;;;12.10;99.90;;;;;;5096311;28;19924;-31
2023/10/22 03:25:12;;;;;;;;;;;12.10;99.90;;;;;;5095764;28;19964;-32
2023/10/22 03:27:39;;;;;;;;;;;12.10;99.90;;;;;;5093834;28;19960;-33
2023/10/22 03:30:06;;;;;;;;;;;12.10;99.90;;;;;;5096076;28;19962;-32
2023/10/22 03:32:33;;;;;;;;;;;12.10;99.90;;;;;;5095697;28;20020;-32
2023/10/22 03:34:59;;;;;;;;;;;12.10;99.90;;;;;;5114182;28;20018;-31
2023/10/22 03:37:26;;;;;;;;;;;12.10;99.90;;;;;;5113747;28;19969;-32
2023/10/22 03:39:53;;;;;;;;;;;12.10;99.90;;;;;;5087888;28;19943;-31
2023/10/22 03:42:21;;;;;;;;;;;12.10;99.90;;;;;;5093847;28;19957;-31
2023/10/22 03:44:47;;;;;;;;;;;12.10;99.90;;;;;;5095828;28;20379;-31
2023/10/22 03:47:14;;;;;;;;;;;12.10;99.90;;;;;;5113926;28;20325;-31
2023/10/22 03:49:41;;;;;;;;;;;12.10;99.90;;;;;;5113750;28;19975;-32
2023/10/22 03:52:07;;;;;;;;;;;12.10;99.90;;;;;;5095520;28;19963;-32
2023/10/22 03:54:34;;;;;;;;;;;12.10;99.90;;;;;;5083992;28;19981;-32
2023/10/22 03:57:01;;;;;;;;;;;12.10;99.90;;;;;;5075615;28;19973;-32
2023/10/22 03:59:28;;;;;;;;;;;12.10;99.90;;;;;;5110324;28;20272;-31
2023/10/22 04:01:56;;;;;;;;;;;12.10;99.90;;;;;;5095525;28;19937;-32
2023/10/22 04:04:22;;;;;;;;;;;12.10;99.90;;;;;;5095211;28;19924;-33
2023/10/22 04:06:49;;;;;;;;;;;12.10;99.90;;;;;;5113128;28;19928;-32
2023/10/22 04:09:15;;;;;;;;;;;12.10;99.90;;;;;;5094660;28;19928;-32
2023/10/22 04:11:42;;;;;;;;;;;12.10;99.90;;;;;;5113476;28;19969;-32
2023/10/22 04:14:09;;;;;;;;;;;12.10;99.90;;;;;;5113409;28;20402;-32
2023/10/22 04:16:37;;;;;;;;;;;12.10;99.90;;;;;;5094396;28;19924;-33
2023/10/22 04:19:03;;;;;;;;;;;12.10;99.90;;;;;;5093924;28;20052;-32
2023/10/22 04:21:30;;;;;;;;;;;12.10;99.90;;;;;;5093815;28;20014;-31
2023/10/22 04:23:57;;;;;;;;;;;12.10;99.90;;;;;;5095153;28;19977;-32
2023/10/22 04:26:23;;;;;;;;;;;12.10;99.90;;;;;;5093794;28;20333;-32
2023/10/22 04:28:50;;;;;;;;;;;12.10;99.90;;;;;;5094992;28;19928;-32
2023/10/22 04:31:16;;;;;;;;;;;12.10;99.90;;;;;;5112985;28;19976;-32
2023/10/22 04:33:44;;;;;;;;;;;12.10;99.90;;;;;;5112522;28;19971;-33
2023/10/22 04:36:19;;;;;;;;;;;12.10;99.90;;;;;;5113000;28;19957;-32
2023/10/22 04:38:45;;;;;;;;;;;12.10;99.90;;;;;;5112721;28;19948;-32
2023/10/22 04:41:12;;;;;;;;;;;12.10;99.90;;;;;;5095233;28;19924;-32
2023/10/22 04:43:38;;;;;;;;;;;12.10;99.90;;;;;;5093284;28;20009;-32
2023/10/22 04:46:05;;;;;;;;;;;12.10;99.90;;;;;;5094707;28;19931;-33
2023/10/22 04:48:32;;;;;;;;;;;12.10;99.90;;;;;;5094799;28;19924;-32
2023/10/22 04:51:03;;;;;;;;;;;12.10;99.90;;;;;;5111646;28;19962;-32
2023/10/22 04:53:30;;;;;;;;;;;12.20;99.90;;;;;;5112537;28;20455;-32
2023/10/22 04:55:58;;;;;;;;;;;12.10;99.90;;;;;;5094939;28;19969;-33
2023/10/22 04:58:24;;;;;;;;;;;12.20;99.90;;;;;;5094725;28;20025;-32
2023/10/22 05:00:51;;;;;;;;;;;12.20;99.90;;;;;;5096931;28;20301;-32
2023/10/22 05:03:18;;;;;;;;;;;12.20;99.90;;;;;;5109055;28;20007;-32
2023/10/22 05:05:44;;;;;;;;;;;12.20;99.90;;;;;;5111571;28;19957;-32
2023/10/22 05:08:12;;;;;;;;;;;12.20;99.90;;;;;;5093118;28;19923;-32
2023/10/22 05:10:39;;;;;;;;;;;12.20;99.90;;;;;;5091705;28;19941;-32
2023/10/22 05:13:05;;;;;;;;;;;12.20;99.90;;;;;;5106835;28;20363;-32
2023/10/22 05:15:32;;;;;;;;;;;12.20;99.90;;;;;;5086012;28;19934;-32
2023/10/22 05:17:59;;;;;;;;;;;12.20;99.90;;;;;;5112387;28;19987;-32
2023/10/22 05:20:28;;;;;;;;;;;12.30;99.90;;;;;;5110131;28;19923;-32
2023/10/22 05:22:55;;;;;;;;;;;12.30;99.90;;;;;;5096943;28;19966;-32
2023/10/22 05:25:23;;;;;;;;;;;12.30;99.90;;;;;;5098348;28;20395;-32
2023/10/22 05:27:50;;;;;;;;;;;12.30;99.90;;;;;;5097965;28;19928;-31
2023/10/22 05:30:17;;;;;;;;;;;12.30;99.90;;;;;;5095555;28;20338;-31
2023/10/22 05:32:44;;;;;;;;;;;12.30;99.90;;;;;;5097956;28;19924;-31
2023/10/22 05:35:10;;;;;;;;;;;12.30;99.90;;;;;;5116428;28;19962;-31
2023/10/22 05:37:37;;;;;;;;;;;12.30;99.90;;;;;;5096746;28;19962;-31
2023/10/22 05:40:05;;;;;;;;;;;12.30;99.90;;;;;;5115562;28;20337;-32
2023/10/22 05:42:34;;;;;;;;;;;12.40;99.90;;;;;;5097689;28;19963;-31
2023/10/22 05:45:01;;;;;;;;;;;12.40;99.90;;;;;;5101177;28;19935;-31
2023/10/22 05:47:31;;;;;;;;;;;12.40;99.90;;;;;;5097430;28;20021;-32
2023/10/22 05:49:58;;;;;;;;;;;12.50;99.90;;;;;;5097461;28;19924;-31
2023/10/22 05:52:27;;;;;;;;;;;12.40;99.90;;;;;;5114928;28;19958;-31
2023/10/22 05:54:54;;;;;;;;;;;12.40;99.90;;;;;;5090558;28;19958;-31
2023/10/22 05:57:22;;;;;;;;;;;12.40;99.90;;;;;;5097498;28;19924;-32
2023/10/22 05:59:51;;;;;;;;;;;12.40;99.90;;;;;;5097910;28;20003;-32
2023/10/22 06:02:17;;;;;;;;;;;12.40;99.90;;;;;;5096652;28;20341;-32
2023/10/22 06:04:44;;;;;;;;;;;12.30;99.90;;;;;;5115075;28;20000;-32
2023/10/22 06:07:11;;;;;;;;;;;12.30;99.90;;;;;;5114062;28;20011;-32
2023/10/22 06:09:37;;;;;;;;;;;12.30;99.90;;;;;;5097036;28;20005;-32
2023/10/22 06:12:04;;;;;;;;;;;12.30;99.90;;;;;;5095387;28;20287;-34
2023/10/22 06:14:31;;;;;;;;;;;12.30;99.90;;;;;;5097249;28;20006;-34
2023/10/22 06:16:59;;;;;;;;;;;12.30;99.90;;;;;;5097455;28;19988;-33
2023/10/22 06:19:26;;;;;;;;;;;12.20;99.90;;;;;;5114466;28;20019;-34
2023/10/22 06:21:52;;;;;;;;;;;12.30;99.90;;;;;;5114159;27;19981;-32
2023/10/22 06:24:20;;;;;;;;;;;12.20;99.90;;;;;;5115622;28;20052;-32
2023/10/22 06:26:47;;;;;;;;;;;12.20;99.90;;;;;;5096661;28;20417;-32
2023/10/22 06:29:13;;;;;;;;;;;12.10;99.90;;;;;;5115167;28;19965;-32
2023/10/22 06:31:40;;;;;;;;;;;12.10;99.90;;;;;;5095672;28;19924;-32
2023/10/22 06:34:08;;;;;;;;;;;12.00;99.90;;;;;;5113911;28;19927;-33
2023/10/22 06:36:35;;;;;;;;;;;12.00;99.90;;;;;;5096507;28;19924;-32
2023/10/22 06:39:01;;;;;;;;;;;12.00;99.90;;;;;;5115054;28;19964;-32
2023/10/22 06:41:28;;;;;;;;;;;11.90;99.90;;;;;;5094559;28;19963;-32
2023/10/22 06:43:54;;;;;;;;;;;11.90;99.90;;;;;;5096612;28;19924;-31
2023/10/22 06:46:21;;;;;;;;;;;11.80;99.90;;;;;;5095527;28;20376;-31
2023/10/22 06:48:48;;;;;;;;;;;11.80;99.90;;;;;;5095804;28;20396;-32
2023/10/22 06:51:16;;;;;;;;;;;11.80;99.90;;;;;;5113888;28;19942;-32
2023/10/22 06:53:43;;;;;;;;;;;11.80;99.90;;;;;;5113548;28;20311;-31
2023/10/22 06:56:11;;;;;;;;;;;11.80;99.90;;;;;;5095679;28;19937;-32
2023/10/22 06:58:38;;;;;;;;;;;11.80;99.90;;;;;;5094304;28;19924;-32
2023/10/22 07:01:05;;;;;;;;;;;11.80;99.90;;;;;;5092692;28;19923;-32
2023/10/22 07:03:32;;;;;;;;;;;11.80;99.90;;;;;;5088042;27;19927;-32
2023/10/22 07:05:58;;;;;;;;;;;11.80;99.90;;;;;;5087773;27;19992;-32
2023/10/22 07:08:26;;;;;;;;;;;11.80;99.90;;;;;;5090277;28;19924;-32
2023/10/22 07:10:53;;;;;;;;;;;11.80;99.90;;;;;;5095331;27;19932;-32
2023/10/22 07:13:20;;;;;;;;;;;11.80;99.90;;;;;;5095485;28;19998;-32
2023/10/22 07:15:47;;;;;;;;;;;11.80;99.90;;;;;;5093323;28;19927;-32
2023/10/22 07:18:13;;;;;;;;;;;11.80;99.90;;;;;;5093399;28;19924;-32
2023/10/22 07:20:40;;;;;;;;;;;11.80;99.90;;;;;;5110790;28;19981;-31
2023/10/22 07:23:07;;;;;;;;;;;11.80;99.90;;;;;;5112813;28;19969;-31
2023/10/22 07:25:36;;;;;;;;;;;11.80;99.90;;;;;;5095497;28;19934;-31
2023/10/22 07:28:02;;;;;;;;;;;11.80;99.90;;;;;;5095134;28;20304;-33
2023/10/22 07:30:29;;;;;;;;;;;11.80;99.90;;;;;;5093527;28;20401;-32
2023/10/22 07:32:56;;;;;;;;;;;11.80;99.90;;;;;;5114320;28;19927;-31
2023/10/22 07:35:23;;;;;;;;;;;11.80;99.90;;;;;;5095545;28;19989;-31
2023/10/22 07:37:49;;;;;;;;;;;11.80;99.90;;;;;;5094796;28;19988;-31
2023/10/22 07:40:17;;;;;;;;;;;11.80;99.90;;;;;;5092716;28;19927;-31
2023/10/22 07:42:45;;;;;;;;;;;11.80;99.90;;;;;;5096083;28;19928;-31
2023/10/22 07:45:12;;;;;;;;;;;11.80;99.90;;;;;;5095672;28;19931;-32
2023/10/22 07:47:38;;;;;;;;;;;11.80;99.90;;;;;;5113882;28;19924;-32
2023/10/22 07:50:06;;;;;;;;;;;11.80;99.90;;;;;;5093898;28;20011;-32
2023/10/22 07:52:32;;;;;;;;;;;11.80;99.90;;;;;;5095730;28;19963;-32
2023/10/22 07:54:59;;;;;;;;;;;11.80;99.90;;;;;;5094612;28;20280;-31
2023/10/22 07:57:26;;;;;;;;;;;11.90;99.90;;;;;;5113669;28;19964;-31
2023/10/22 07:59:54;;;;;;;;;;;11.90;99.90;;;;;;5092955;28;19924;-31
2023/10/22 08:02:20;;;;;;;;;;;11.90;99.90;;;;;;5093063;28;19936;-33
2023/10/22 08:04:47;;;;;;;;;;;11.90;99.90;;;;;;5093705;28;19924;-33
2023/10/22 08:10:36;;;;;;;;;;;11.90;99.90;;;;;;5108558;28;20325;-34
2023/10/22 08:13:02;;;;;;;;;;;11.90;99.90;;;;;;5095558;28;19977;-32
2023/10/22 08:15:30;;;;;;;;;;;12.00;99.90;;;;;;5090931;27;20040;-32
2023/10/22 08:17:57;;;;;;;;;;;12.00;99.90;;;;;;5094772;28;19928;-32
2023/10/22 08:20:24;;;;;;;;;;;12.00;99.90;;;;;;5093042;28;19928;-32
2023/10/22 08:22:50;;;;;;;;;;;12.10;99.90;;;;;;5094184;28;20222;-32
2023/10/22 08:25:17;;;;;;;;;;;12.10;99.90;;;;;;5094173;28;19983;-31
2023/10/22 08:27:44;;;;;;;;;;;12.10;99.90;;;;;;5092305;28;19923;-31
2023/10/22 08:30:11;;;;;;;;;;;12.20;99.90;;;;;;5093007;28;19931;-31
2023/10/22 08:32:44;;;;;;;;;;;12.20;99.90;;;;;;5092773;27;19984;-32
2023/10/22 08:35:10;;;;;;;;;;;12.20;99.90;;;;;;5110190;28;20381;-31
2023/10/22 08:37:37;;;;;;;;;;;12.30;99.90;;;;;;5093607;28;19923;-32
2023/10/22 08:40:07;;;;;;;;;;;12.30;99.90;;;;;;5093782;28;19938;-32
2023/10/22 08:42:34;;;;;;;;;;;12.40;99.90;;;;;;5094947;28;20360;-31
2023/10/22 08:45:00;;;;;;;;;;;12.40;99.90;;;;;;5111539;28;19962;-33
2023/10/22 08:47:27;;;;;;;;;;;12.50;99.90;;;;;;5091816;28;19956;-31
2023/10/22 08:49:55;;;;;;;;;;;12.70;99.90;;;;;;5094801;28;19962;-33
2023/10/22 08:52:22;;;;;;;;;;;12.80;99.90;;;;;;5111538;28;19924;-31
2023/10/22 08:54:48;;;;;;;;;;;12.90;99.90;;;;;;5112810;28;19977;-31
2023/10/22 08:57:15;;;;;;;;;;;13.10;99.90;;;;;;5093883;28;19974;-31
2023/10/22 08:59:42;;;;;;;;;;;13.20;99.90;;;;;;5094253;28;19981;-32
2023/10/22 09:02:09;;;;;;;;;;;13.20;99.90;;;;;;5094788;28;19968;-32
2023/10/22 09:04:36;;;;;;;;;;;13.20;99.90;;;;;;5112038;28;19924;-31
2023/10/22 09:07:04;;;;;;;;;;;13.20;99.90;;;;;;5093183;28;19974;-33
2023/10/22 09:09:31;;;;;;;;;;;13.20;99.90;;;;;;5093069;28;20398;-31
2023/10/22 09:11:58;;;;;;;;;;;13.20;99.90;;;;;;5091346;28;20037;-31
2023/10/22 09:14:25;;;;;;;;;;;13.10;99.90;;;;;;5091106;28;19924;-31
2023/10/22 09:16:51;;;;;;;;;;;13.10;99.90;;;;;;5110399;28;19963;-31
2023/10/22 09:19:33;;;;;;;;;;;13.10;99.90;;;;;;5112160;28;19938;-31
2023/10/22 09:22:00;;;;;;;;;;;13.10;99.90;;;;;;5109618;28;20355;-32
2023/10/22 09:24:28;;;;;;;;;;;13.20;99.90;;;;;;5094414;28;20007;-31
2023/10/22 09:26:55;;;;;;;;;;;13.30;99.90;;;;;;5092735;28;19958;-31
2023/10/22 09:29:21;;;;;;;;;;;13.40;99.90;;;;;;5093982;28;19924;-32
2023/10/22 09:31:51;;;;;;;;;;;13.40;99.90;;;;;;5112315;28;19931;-31
2023/10/22 09:34:25;;;;;;;;;;;13.50;99.90;;;;;;5094271;28;19962;-33
2023/10/22 09:36:52;;;;;;;;;;;13.60;99.90;;;;;;5079340;28;19935;-32
2023/10/22 09:39:24;;;;;;;;;;;13.60;99.90;;;;;;5094301;28;19963;-32
2023/10/22 09:41:52;;;;;;;;;;;13.70;99.90;;;;;;5093712;28;19973;-32
2023/10/22 09:44:19;;;;;;;;;;;13.80;99.90;;;;;;5112441;28;19969;-31
2023/10/22 09:46:46;;;;;;;;;;;13.90;99.90;;;;;;5093366;28;20448;-32
2023/10/22 09:49:12;;;;;;;;;;;13.90;99.90;;;;;;5112198;28;20337;-32
2023/10/22 09:51:39;;;;;;;;;;;14.00;99.90;;;;;;5104824;28;20341;-32
2023/10/22 09:54:06;;;;;;;;;;;14.00;99.90;;;;;;5108073;28;19928;-33
2023/10/22 09:56:33;;;;;;;;;;;14.00;99.90;;;;;;5094296;28;19947;-35
2023/10/22 09:59:03;;;;;;;;;;;13.90;99.90;;;;;;5108971;28;19953;-32
2023/10/22 10:01:30;;;;;;;;;;;13.90;99.90;;;;;;5089978;28;19931;-33
2023/10/22 10:03:57;;;;;;;;;;;13.90;99.90;;;;;;5110007;28;19982;-32
2023/10/22 10:06:24;;;;;;;;;;;14.00;99.90;;;;;;5093082;28;20458;-32
2023/10/22 10:08:51;;;;;;;;;;;13.90;99.90;;;;;;5092587;28;19939;-32
2023/10/22 10:11:17;;;;;;;;;;;13.90;99.90;;;;;;5095848;28;19958;-32
2023/10/22 10:13:44;;;;;;;;;;;13.80;99.90;;;;;;5093702;28;19928;-32
2023/10/22 10:16:12;;;;;;;;;;;13.70;99.90;;;;;;5107213;28;19976;-32
2023/10/22 10:18:57;;;;;;;;;;;13.70;99.90;;;;;;5096228;28;20018;-32
2023/10/22 10:21:38;;;;;;;;;;;13.70;99.90;;;;;;5112140;28;20621;-32
2023/10/22 10:24:16;;;;;;;;;;;13.80;99.90;;;;;;5093608;28;19924;-32
2023/10/22 10:26:43;;;;;;;;;;;13.80;99.90;;;;;;5111080;28;19999;-32
2023/10/22 10:29:13;;;;;;;;;;;13.70;99.90;;;;;;5095174;28;19924;-32
2023/10/22 10:31:41;;;;;;;;;;;13.70;99.90;;;;;;5111062;28;20004;-31
2023/10/22 10:34:08;;;;;;;;;;;13.60;99.90;;;;;;5095060;28;19958;-31
2023/10/22 10:36:34;;;;;;;;;;;13.50;99.90;;;;;;5114111;28;20373;-32
2023/10/22 10:39:16;;;;;;;;;;;13.50;99.90;;;;;;5092144;28;19928;-31
2023/10/22 10:41:52;;;;;;;;;;;13.40;99.90;;;;;;5086132;28;20392;-32
2023/10/22 10:44:19;;;;;;;;;;;13.30;99.90;;;;;;5096607;28;20044;-32
2023/10/22 10:46:47;;;;;;;;;;;13.30;99.90;;;;;;5112291;28;20294;-32
2023/10/22 10:49:13;;;;;;;;;;;13.30;99.90;;;;;;5094176;28;19928;-31
2023/10/22 10:51:41;;;;;;;;;;;13.40;99.90;;;;;;5095380;28;19923;-32
2023/10/22 10:54:12;;;;;;;;;;;13.60;99.90;;;;;;5113165;28;20352;-31
2023/10/22 10:56:45;;;;;;;;;;;13.70;99.90;;;;;;5112303;28;20338;-32
2023/10/22 10:59:11;;;;;;;;;;;13.80;99.90;;;;;;5091006;28;19968;-33
2023/10/22 11:01:38;;;;;;;;;;;13.80;99.90;;;;;;5112777;28;19923;-32
2023/10/22 11:04:08;;;;;;;;;;;13.80;99.90;;;;;;5095665;28;19938;-32
2023/10/22 11:06:34;;;;;;;;;;;13.70;99.90;;;;;;5091587;28;20375;-31
2023/10/22 11:09:01;;;;;;;;;;;13.60;99.90;;;;;;5094148;28;19998;-31
2023/10/22 11:11:30;;;;;;;;;;;13.50;99.90;;;;;;5111949;28;19931;-33
2023/10/22 11:13:56;;;;;;;;;;;13.50;99.90;;;;;;5093898;28;19946;-32
2023/10/22 11:16:23;;;;;;;;;;;13.50;99.90;;;;;;5112234;28;19991;-32
2023/10/22 11:18:54;;;;;;;;;;;13.50;99.90;;;;;;5112013;28;20637;-32
2023/10/22 11:21:22;;;;;;;;;;;13.50;99.90;;;;;;5093531;28;19924;-31
2023/10/22 11:23:48;;;;;;;;;;;13.50;99.90;;;;;;5113493;28;19923;-32
2023/10/22 11:26:15;;;;;;;;;;;13.70;99.90;;;;;;5113099;28;20229;-32
2023/10/22 11:28:42;;;;;;;;;;;13.80;99.90;;;;;;5104780;28;20375;-33
2023/10/22 11:31:17;;;;;;;;;;;13.90;99.90;;;;;;5095677;28;19928;-32
2023/10/22 11:33:44;;;;;;;;;;;13.80;99.90;;;;;;5112877;27;20401;-32
2023/10/22 11:36:17;;;;;;;;;;;13.80;99.90;;;;;;5083412;28;20350;-33
2023/10/22 11:38:45;;;;;;;;;;;13.80;99.90;;;;;;5097335;28;19961;-32
2023/10/22 11:41:11;;;;;;;;;;;13.70;99.90;;;;;;5111615;28;19932;-32
2023/10/22 11:43:42;;;;;;;;;;;13.70;99.90;;;;;;5098313;28;19985;-31
2023/10/22 11:46:09;;;;;;;;;;;13.60;99.90;;;;;;5112210;28;19924;-31
2023/10/22 11:48:37;;;;;;;;;;;13.60;99.90;;;;;;5111955;28;19942;-32
2023/10/22 11:51:05;;;;;;;;;;;13.60;99.90;;;;;;5092118;28;20353;-31
2023/10/22 11:53:40;;;;;;;;;;;13.60;99.90;;;;;;5088942;28;20444;-32
2023/10/22 11:56:08;;;;;;;;;;;13.60;99.90;;;;;;5093923;28;19927;-32
2023/10/22 11:58:35;;;;;;;;;;;13.60;99.90;;;;;;5094004;28;19924;-32
2023/10/22 12:01:02;;;;;;;;;;;13.60;99.90;;;;;;5090386;28;19923;-31
2023/10/22 12:03:29;;;;;;;;;;;13.60;99.90;;;;;;5090481;28;19927;-32
2023/10/22 12:05:56;;;;;;;;;;;13.60;99.90;;;;;;5082422;28;20131;-32
2023/10/22 12:08:23;;;;;;;;;;;13.60;99.90;;;;;;5089277;28;20006;-32
2023/10/22 12:10:50;;;;;;;;;;;13.80;99.90;;;;;;5087132;28;19931;-31
2023/10/22 12:13:17;;;;;;;;;;;13.90;99.90;;;;;;5081396;28;19923;-31
2023/10/22 12:15:44;;;;;;;;;;;14.00;99.90;;;;;;5099610;28;19981;-32
2023/10/22 12:18:11;;;;;;;;;;;14.10;99.90;;;;;;5101327;28;19985;-32
2023/10/22 12:20:37;;;;;;;;;;;14.30;99.90;;;;;;5107610;28;20433;-31
2023/10/22 12:23:04;;;;;;;;;;;14.40;99.90;;;;;;5094362;28;20268;-31
2023/10/22 12:25:31;;;;;;;;;;;14.60;99.90;;;;;;5092868;28;20402;-31
2023/10/22 12:27:58;;;;;;;;;;;14.60;99.90;;;;;;5092773;28;20362;-32
2023/10/22 12:30:26;;;;;;;;;;;14.60;99.90;;;;;;5108534;28;19964;-31
2023/10/22 12:32:53;;;;;;;;;;;14.50;99.90;;;;;;5080413;28;20068;-31
2023/10/22 12:35:20;;;;;;;;;;;14.50;99.90;;;;;;5090121;28;20666;-32
2023/10/22 12:37:46;;;;;;;;;;;14.50;99.90;;;;;;5089689;28;20007;-31
2023/10/22 12:40:13;;;;;;;;;;;14.60;99.90;;;;;;5093859;28;19997;-33
2023/10/22 12:42:42;;;;;;;;;;;14.70;99.90;;;;;;5112856;28;20046;-33
2023/10/22 12:45:09;;;;;;;;;;;14.70;99.90;;;;;;5112886;28;19941;-32
2023/10/22 12:47:37;;;;;;;;;;;14.70;99.90;;;;;;5110972;28;20329;-33
2023/10/22 12:50:04;;;;;;;;;;;14.70;99.90;;;;;;5094313;28;19924;-33
2023/10/22 12:52:30;;;;;;;;;;;14.60;99.90;;;;;;5111808;28;19938;-33
2023/10/22 12:54:57;;;;;;;;;;;14.60;99.90;;;;;;5093547;28;20409;-32
2023/10/22 12:57:24;;;;;;;;;;;14.60;99.90;;;;;;5109849;28;19954;-32
2023/10/22 12:59:50;;;;;;;;;;;14.70;99.90;;;;;;5094484;28;19931;-32
2023/10/22 13:02:17;;;;;;;;;;;14.70;99.90;;;;;;5093187;28;19923;-32
2023/10/22 13:04:48;;;;;;;;;;;14.80;99.90;;;;;;5093207;28;20027;-32
2023/10/22 13:07:14;;;;;;;;;;;14.90;99.90;;;;;;5110413;28;20393;-33
2023/10/22 13:09:41;;;;;;;;;;;15.00;99.90;;;;;;5106858;28;19940;-34
2023/10/22 13:12:08;;;;;;;;;;;15.10;99.90;;;;;;5091759;28;19931;-31
2023/10/22 13:14:34;;;;;;;;;;;15.20;99.90;;;;;;5091957;28;20011;-33
2023/10/22 13:17:01;;;;;;;;;;;15.20;99.90;;;;;;5094385;28;20428;-32
2023/10/22 13:19:27;;;;;;;;;;;15.30;99.90;;;;;;5094376;28;19946;-32
2023/10/22 13:21:55;;;;;;;;;;;15.30;99.90;;;;;;5109310;28;20295;-31
2023/10/22 13:24:23;;;;;;;;;;;15.40;99.90;;;;;;5094468;28;20329;-31
2023/10/22 13:26:50;;;;;;;;;;;15.40;99.90;;;;;;5109951;28;20310;-33
2023/10/22 13:29:17;;;;;;;;;;;15.50;99.90;;;;;;5092523;28;19928;-33
2023/10/22 13:31:44;;;;;;;;;;;15.50;99.90;;;;;;5090388;28;19924;-32
2023/10/22 13:34:10;;;;;;;;;;;15.50;99.90;;;;;;5094661;28;19942;-32
2023/10/22 13:36:37;;;;;;;;;;;15.50;99.90;;;;;;5091982;28;19968;-32
2023/10/22 13:39:05;;;;;;;;;;;15.50;99.90;;;;;;5091016;28;20364;-32
2023/10/22 13:41:32;;;;;;;;;;;15.50;99.90;;;;;;5093557;28;20003;-32
2023/10/22 13:43:58;;;;;;;;;;;15.40;99.90;;;;;;5096819;28;19938;-32
2023/10/22 13:46:25;;;;;;;;;;;15.30;99.90;;;;;;5114653;28;19928;-31
2023/10/22 13:48:52;;;;;;;;;;;15.30;99.90;;;;;;5095888;28;19931;-31
2023/10/22 13:51:18;;;;;;;;;;;15.20;99.90;;;;;;5115167;28;20467;-32
2023/10/22 13:53:45;;;;;;;;;;;15.20;99.90;;;;;;5098112;28;19962;-32
2023/10/22 13:56:13;;;;;;;;;;;15.20;99.90;;;;;;5093042;28;19943;-33
2023/10/22 13:58:40;;;;;;;;;;;15.20;99.90;;;;;;5088169;28;19928;-32
2023/10/22 14:01:10;;;;;;;;;;;15.10;99.90;;;;;;5094757;28;19924;-32
2023/10/22 14:03:37;;;;;;;;;;;15.10;99.90;;;;;;5092746;28;19923;-32
2023/10/22 14:06:03;;;;;;;;;;;15.10;99.90;;;;;;5113555;28;20379;-31
2023/10/22 14:08:30;;;;;;;;;;;15.00;99.90;;;;;;5115944;28;19924;-32
2023/10/22 14:10:57;;;;;;;;;;;15.00;99.90;;;;;;5097338;28;19958;-32
2023/10/22 14:13:25;;;;;;;;;;;14.90;99.90;;;;;;5116793;27;19977;-31
2023/10/22 14:15:51;;;;;;;;;;;14.90;99.90;;;;;;5097041;28;19977;-31
2023/10/22 14:18:18;;;;;;;;;;;14.90;99.90;;;;;;5110161;28;19924;-33
2023/10/22 14:20:45;;;;;;;;;;;14.90;99.90;;;;;;5094849;28;20444;-32